createdAt,value
2018-04-24T00:00:08.041Z,1005.97
2018-04-24T00:01:08.018Z,1005.97
2018-04-24T00:02:07.994Z,1006
2018-04-24T00:03:07.971Z,1005.95
2018-04-24T00:04:07.947Z,1005.93
2018-04-24T00:05:07.924Z,1005.93
2018-04-24T00:06:07.900Z,1005.9
2018-04-24T00:07:07.876Z,1005.89
2018-04-24T00:08:07.852Z,1005.86
2018-04-24T00:09:07.827Z,1005.84
2018-04-24T00:10:07.803Z,1005.84
2018-04-24T00:11:07.783Z,1005.77
2018-04-24T00:12:07.756Z,1005.78
2018-04-24T00:13:07.733Z,1005.78
2018-04-24T00:14:07.708Z,1005.75
2018-04-24T00:15:07.685Z,1005.71
2018-04-24T00:16:07.662Z,1005.71
2018-04-24T00:17:07.639Z,1005.68
2018-04-24T00:18:07.614Z,1005.62
2018-04-24T00:19:07.594Z,1005.65
2018-04-24T00:20:07.567Z,1005.65
2018-04-24T00:21:07.543Z,1005.67
2018-04-24T00:22:07.517Z,1005.66
2018-04-24T00:23:07.494Z,1005.71
2018-04-24T00:24:07.471Z,1005.71
2018-04-24T00:25:07.446Z,1005.75
2018-04-24T00:26:07.428Z,1005.74
2018-04-24T00:27:07.399Z,1005.73
2018-04-24T00:28:07.377Z,1005.79
2018-04-24T00:29:07.351Z,1005.81
2018-04-24T00:30:07.328Z,1005.86
2018-04-24T00:31:07.303Z,1005.84
2018-04-24T00:32:07.280Z,1005.85
2018-04-24T00:33:07.255Z,1005.84
2018-04-24T00:34:07.231Z,1005.87
2018-04-24T00:35:07.206Z,1005.84
2018-04-24T00:36:07.184Z,1005.87
2018-04-24T00:37:07.159Z,1005.92
2018-04-24T00:38:07.138Z,1005.89
2018-04-24T00:39:07.112Z,1005.94
2018-04-24T00:40:07.091Z,1005.95
2018-04-24T00:41:07.064Z,1005.9
2018-04-24T00:42:07.041Z,1005.87
2018-04-24T00:43:07.016Z,1005.84
2018-04-24T00:44:06.991Z,1005.88
2018-04-24T00:45:06.968Z,1005.9
2018-04-24T00:46:06.944Z,1005.83
2018-04-24T00:47:06.921Z,1005.82
2018-04-24T00:48:06.896Z,1005.8
2018-04-24T00:49:06.873Z,1005.75
2018-04-24T00:50:06.848Z,1005.8
2018-04-24T00:51:06.826Z,1005.76
2018-04-24T00:52:06.800Z,1005.79
2018-04-24T00:53:06.777Z,1005.76
2018-04-24T00:54:06.752Z,1005.85
2018-04-24T00:55:06.728Z,1005.77
2018-04-24T00:56:06.705Z,1005.79
2018-04-24T00:57:06.681Z,1005.78
2018-04-24T00:58:06.657Z,1005.77
2018-04-24T00:59:06.634Z,1005.75
2018-04-24T01:00:06.608Z,1005.72
2018-04-24T01:01:06.584Z,1005.66
2018-04-24T01:02:06.561Z,1005.64
2018-04-24T01:03:06.536Z,1005.58
2018-04-24T01:04:06.518Z,1005.6
2018-04-24T01:05:06.489Z,1005.48
2018-04-24T01:06:06.462Z,1005.46
2018-04-24T01:07:06.440Z,1005.52
2018-04-24T01:08:06.420Z,1005.53
2018-04-24T01:09:06.392Z,1005.63
2018-04-24T01:10:06.372Z,1005.62
2018-04-24T01:11:06.343Z,1005.66
2018-04-24T01:12:06.320Z,1005.69
2018-04-24T01:13:06.297Z,1005.68
2018-04-24T01:14:06.272Z,1005.73
2018-04-24T01:15:06.257Z,1005.73
2018-04-24T01:16:06.224Z,1005.67
2018-04-24T01:17:06.199Z,1005.65
2018-04-24T01:18:06.176Z,1005.64
2018-04-24T01:19:06.151Z,1005.61
2018-04-24T01:20:06.131Z,1005.61
2018-04-24T01:21:06.108Z,1005.57
2018-04-24T01:22:06.080Z,1005.53
2018-04-24T01:23:06.056Z,1005.52
2018-04-24T01:24:06.032Z,1005.48
2018-04-24T01:25:06.006Z,1005.48
2018-04-24T01:26:05.983Z,1005.44
2018-04-24T01:27:05.959Z,1005.4
2018-04-24T01:28:05.941Z,1005.4
2018-04-24T01:29:05.912Z,1005.36
2018-04-24T01:30:05.890Z,1005.34
2018-04-24T01:31:05.866Z,1005.36
2018-04-24T01:32:05.938Z,1005.35
2018-04-24T01:33:05.815Z,1005.37
2018-04-24T01:34:05.789Z,1005.37
2018-04-24T01:35:05.767Z,1005.41
2018-04-24T01:36:05.741Z,1005.45
2018-04-24T01:37:05.717Z,1005.44
2018-04-24T01:38:05.696Z,1005.5
2018-04-24T01:39:05.668Z,1005.52
2018-04-24T01:40:05.645Z,1005.5
2018-04-24T01:41:05.620Z,1005.46
2018-04-24T01:42:05.596Z,1005.43
2018-04-24T01:43:05.571Z,1005.4
2018-04-24T01:44:05.547Z,1005.32
2018-04-24T01:45:05.522Z,1005.32
2018-04-24T01:46:05.498Z,1005.33
2018-04-24T01:47:05.476Z,1005.38
2018-04-24T01:48:05.451Z,1005.41
2018-04-24T01:49:05.425Z,1005.47
2018-04-24T01:50:05.401Z,1005.45
2018-04-24T01:51:05.380Z,1005.5
2018-04-24T01:52:05.353Z,1005.48
2018-04-24T01:53:05.329Z,1005.51
2018-04-24T01:54:05.303Z,1005.47
2018-04-24T01:55:05.279Z,1005.44
2018-04-24T01:56:05.255Z,1005.39
2018-04-24T01:57:05.230Z,1005.4
2018-04-24T01:58:05.207Z,1005.4
2018-04-24T01:59:05.183Z,1005.35
2018-04-24T02:00:05.172Z,1005.35
2018-04-24T02:01:05.134Z,1005.36
2018-04-24T02:02:05.108Z,1005.34
2018-04-24T02:03:05.085Z,1005.41
2018-04-24T02:04:05.061Z,1005.43
2018-04-24T02:05:05.037Z,1005.46
2018-04-24T02:06:05.019Z,1005.45
2018-04-24T02:07:04.989Z,1005.55
2018-04-24T02:08:04.963Z,1005.55
2018-04-24T02:09:04.939Z,1005.56
2018-04-24T02:10:04.915Z,1005.5
2018-04-24T02:11:04.891Z,1005.49
2018-04-24T02:12:04.866Z,1005.48
2018-04-24T02:13:04.842Z,1005.45
2018-04-24T02:14:04.817Z,1005.49
2018-04-24T02:15:04.793Z,1005.45
2018-04-24T02:16:04.769Z,1005.49
2018-04-24T02:17:04.745Z,1005.55
2018-04-24T02:18:04.734Z,1005.59
2018-04-24T02:19:04.695Z,1005.61
2018-04-24T02:20:04.671Z,1005.53
2018-04-24T02:21:04.648Z,1005.54
2018-04-24T02:22:04.624Z,1005.47
2018-04-24T02:23:04.598Z,1005.44
2018-04-24T02:24:04.574Z,1005.51
2018-04-24T02:25:04.572Z,1005.47
2018-04-24T02:26:04.527Z,1005.53
2018-04-24T02:27:04.502Z,1005.51
2018-04-24T02:28:04.481Z,1005.47
2018-04-24T02:29:04.454Z,1005.45
2018-04-24T02:30:04.430Z,1005.46
2018-04-24T02:31:04.406Z,1005.4
2018-04-24T02:32:04.383Z,1005.48
2018-04-24T02:33:04.358Z,1005.42
2018-04-24T02:34:04.332Z,1005.4
2018-04-24T02:35:04.308Z,1005.43
2018-04-24T02:36:04.284Z,1005.42
2018-04-24T02:37:04.260Z,1005.34
2018-04-24T02:38:04.235Z,1005.29
2018-04-24T02:39:04.211Z,1005.34
2018-04-24T02:40:04.186Z,1005.32
2018-04-24T02:41:04.161Z,1005.27
2018-04-24T02:42:04.141Z,1005.27
2018-04-24T02:43:04.119Z,1005.35
2018-04-24T02:44:04.088Z,1005.27
2018-04-24T02:45:04.065Z,1005.26
2018-04-24T02:46:04.039Z,1005.22
2018-04-24T02:47:04.016Z,1005.29
2018-04-24T02:48:03.994Z,1005.29
2018-04-24T02:49:03.966Z,1005.31
2018-04-24T02:50:03.941Z,1005.26
2018-04-24T02:51:03.917Z,1005.3
2018-04-24T02:52:03.892Z,1005.27
2018-04-24T02:53:03.868Z,1005.3
2018-04-24T02:54:03.844Z,1005.27
2018-04-24T02:55:03.819Z,1005.26
2018-04-24T02:56:03.795Z,1005.32
2018-04-24T02:57:03.769Z,1005.28
2018-04-24T02:58:03.752Z,1005.25
2018-04-24T02:59:03.722Z,1005.28
2018-04-24T03:00:03.695Z,1005.26
2018-04-24T03:01:03.670Z,1005.19
2018-04-24T03:02:03.646Z,1005.18
2018-04-24T03:03:03.622Z,1005.15
2018-04-24T03:04:03.596Z,1005.19
2018-04-24T03:05:03.572Z,1005.19
2018-04-24T03:06:03.546Z,1005.16
2018-04-24T03:07:03.523Z,1005.13
2018-04-24T03:08:03.499Z,1005.16
2018-04-24T03:09:03.473Z,1005.11
2018-04-24T03:10:03.448Z,1005.18
2018-04-24T03:11:03.422Z,1005.17
2018-04-24T03:12:03.398Z,1005.16
2018-04-24T03:13:03.373Z,1005.1
2018-04-24T03:14:03.347Z,1005.06
2018-04-24T03:15:03.324Z,1005.11
2018-04-24T03:16:03.300Z,1005.04
2018-04-24T03:17:03.274Z,1005.03
2018-04-24T03:18:03.248Z,1005.04
2018-04-24T03:19:03.223Z,1005.1
2018-04-24T03:20:03.201Z,1005.16
2018-04-24T03:21:03.177Z,1005.09
2018-04-24T03:22:03.155Z,1005.05
2018-04-24T03:23:03.125Z,1005.12
2018-04-24T03:24:03.103Z,1005.11
2018-04-24T03:25:03.075Z,1005.12
2018-04-24T03:26:03.050Z,1005.18
2018-04-24T03:27:03.030Z,1005.16
2018-04-24T03:28:03.005Z,1005.22
2018-04-24T03:29:02.976Z,1005.21
2018-04-24T03:30:02.952Z,1005.23
2018-04-24T03:31:02.928Z,1005.25
2018-04-24T03:32:02.901Z,1005.3
2018-04-24T03:33:02.876Z,1005.25
2018-04-24T03:34:02.850Z,1005.23
2018-04-24T03:35:02.826Z,1005.23
2018-04-24T03:36:02.801Z,1005.21
2018-04-24T03:37:02.776Z,1005.22
2018-04-24T03:38:02.751Z,1005.2
2018-04-24T03:39:02.727Z,1005.24
2018-04-24T03:40:02.700Z,1005.29
2018-04-24T03:41:02.675Z,1005.3
2018-04-24T03:42:02.650Z,1005.31
2018-04-24T03:43:02.624Z,1005.4
2018-04-24T03:44:02.606Z,1005.35
2018-04-24T03:45:02.575Z,1005.3
2018-04-24T03:46:02.549Z,1005.3
2018-04-24T03:47:02.525Z,1005.19
2018-04-24T03:48:02.499Z,1005.22
2018-04-24T03:49:02.475Z,1005.26
2018-04-24T03:50:02.452Z,1005.12
2018-04-24T03:51:02.423Z,1005.1
2018-04-24T03:52:02.399Z,1005.07
2018-04-24T03:53:02.374Z,1004.93
2018-04-24T03:54:02.349Z,1004.93
2018-04-24T03:55:02.322Z,1004.83
2018-04-24T03:56:02.297Z,1004.78
2018-04-24T03:57:02.276Z,1004.94
2018-04-24T03:58:02.248Z,1004.87
2018-04-24T03:59:02.222Z,1004.95
2018-04-24T04:00:02.198Z,1004.99
2018-04-24T04:01:02.174Z,1004.93
2018-04-24T04:02:02.147Z,1004.94
2018-04-24T04:03:02.122Z,1005
2018-04-24T04:04:02.098Z,1004.99
2018-04-24T04:05:02.072Z,1005
2018-04-24T04:06:02.052Z,1005.02
2018-04-24T04:07:02.023Z,1005.05
2018-04-24T04:08:01.998Z,1005.06
2018-04-24T04:09:01.971Z,1005.04
2018-04-24T04:10:01.947Z,1005.07
2018-04-24T04:11:01.920Z,1005.06
2018-04-24T04:12:01.896Z,1004.98
2018-04-24T04:13:01.873Z,1005.02
2018-04-24T04:14:01.931Z,1004.99
2018-04-24T04:15:01.821Z,1004.96
2018-04-24T04:16:01.950Z,1005.03
2018-04-24T04:17:02.228Z,1005.03
2018-04-24T04:18:01.745Z,1005
2018-04-24T04:19:01.719Z,1005.03
2018-04-24T04:20:01.692Z,1005
2018-04-24T04:21:01.668Z,1005
2018-04-24T04:22:01.644Z,1005.02
2018-04-24T04:23:01.622Z,1005.07
2018-04-24T04:24:01.592Z,1005.06
2018-04-24T04:25:01.566Z,1005.05
2018-04-24T04:26:01.542Z,1005.04
2018-04-24T04:27:01.520Z,1005
2018-04-24T04:28:01.491Z,1005.03
2018-04-24T04:29:01.466Z,1005.06
2018-04-24T04:30:01.442Z,1004.98
2018-04-24T04:31:01.416Z,1004.99
2018-04-24T04:32:01.390Z,1005.02
2018-04-24T04:33:01.507Z,1005.01
2018-04-24T04:34:01.341Z,1005.01
2018-04-24T04:35:01.316Z,1004.99
2018-04-24T04:36:01.291Z,1004.99
2018-04-24T04:37:01.269Z,1005.06
2018-04-24T04:38:01.243Z,1005.03
2018-04-24T04:39:01.214Z,1005.09
2018-04-24T04:40:01.191Z,1005.08
2018-04-24T04:41:01.165Z,1005.13
2018-04-24T04:42:01.139Z,1005.08
2018-04-24T04:43:01.116Z,1005.12
2018-04-24T04:44:01.090Z,1005.18
2018-04-24T04:45:01.067Z,1005.22
2018-04-24T04:46:01.040Z,1005.21
2018-04-24T04:47:01.015Z,1005.27
2018-04-24T04:48:00.990Z,1005.27
2018-04-24T04:49:00.965Z,1005.32
2018-04-24T04:50:00.940Z,1005.26
2018-04-24T04:51:00.916Z,1005.37
2018-04-24T04:52:00.893Z,1005.37
2018-04-24T04:53:00.865Z,1005.35
2018-04-24T04:54:00.841Z,1005.35
2018-04-24T04:55:00.816Z,1005.36
2018-04-24T04:56:00.838Z,1005.36
2018-04-24T04:57:00.775Z,1005.35
2018-04-24T04:58:00.749Z,1005.41
2018-04-24T04:59:00.720Z,1005.38
2018-04-24T05:00:00.693Z,1005.41
2018-04-24T05:01:00.669Z,1005.42
2018-04-24T05:02:00.645Z,1005.45
2018-04-24T05:03:00.620Z,1005.44
2018-04-24T05:04:00.597Z,1005.48
2018-04-24T05:05:00.571Z,1005.42
2018-04-24T05:06:00.568Z,1005.44
2018-04-24T05:07:00.521Z,1005.46
2018-04-24T05:08:00.497Z,1005.45
2018-04-24T05:09:00.473Z,1005.48
2018-04-24T05:10:00.453Z,1005.52
2018-04-24T05:11:00.424Z,1005.53
2018-04-24T05:12:00.445Z,1005.56
2018-04-24T05:13:00.376Z,1005.61
2018-04-24T05:14:00.350Z,1005.59
2018-04-24T05:15:00.327Z,1005.57
2018-04-24T05:16:00.302Z,1005.61
2018-04-24T05:17:00.278Z,1005.66
2018-04-24T05:18:00.252Z,1005.61
2018-04-24T05:19:00.233Z,1005.61
2018-04-24T05:20:00.253Z,1005.66
2018-04-24T05:21:00.182Z,1005.59
2018-04-24T05:22:00.157Z,1005.57
2018-04-24T05:23:00.133Z,1005.68
2018-04-24T05:24:00.118Z,1005.57
2018-04-24T05:25:00.085Z,1005.56
2018-04-24T05:26:00.060Z,1005.54
2018-04-24T05:27:00.037Z,1005.63
2018-04-24T05:28:00.012Z,1005.57
2018-04-24T05:28:59.988Z,1005.51
2018-04-24T05:29:59.964Z,1005.46
2018-04-24T05:30:59.940Z,1005.49
2018-04-24T05:31:59.916Z,1005.48
2018-04-24T05:32:59.897Z,1005.57
2018-04-24T05:33:59.874Z,1005.54
2018-04-24T05:34:59.845Z,1005.53
2018-04-24T05:35:59.820Z,1005.67
2018-04-24T05:36:59.801Z,1005.57
2018-04-24T05:37:59.773Z,1005.56
2018-04-24T05:38:59.749Z,1005.57
2018-04-24T05:39:59.724Z,1005.54
2018-04-24T05:40:59.706Z,1005.5
2018-04-24T05:41:59.689Z,1005.55
2018-04-24T05:42:59.653Z,1005.6
2018-04-24T05:43:59.628Z,1005.67
2018-04-24T05:44:59.606Z,1005.58
2018-04-24T05:45:59.581Z,1005.66
2018-04-24T05:46:59.561Z,1005.67
2018-04-24T05:47:59.533Z,1005.69
2018-04-24T05:48:59.510Z,1005.67
2018-04-24T05:49:59.487Z,1005.67
2018-04-24T05:50:59.470Z,1005.63
2018-04-24T05:51:59.440Z,1005.62
2018-04-24T05:52:59.501Z,1005.66
2018-04-24T05:53:59.393Z,1005.68
2018-04-24T05:54:59.368Z,1005.68
2018-04-24T05:55:59.347Z,1005.66
2018-04-24T05:56:59.324Z,1005.63
2018-04-24T05:57:59.302Z,1005.69
2018-04-24T05:58:59.281Z,1005.63
2018-04-24T05:59:59.257Z,1005.67
2018-04-24T06:00:59.232Z,1005.73
2018-04-24T06:01:59.209Z,1005.7
2018-04-24T06:02:59.189Z,1005.73
2018-04-24T06:03:59.164Z,1005.73
2018-04-24T06:04:59.141Z,1005.66
2018-04-24T06:05:59.118Z,1005.71
2018-04-24T06:06:59.096Z,1005.75
2018-04-24T06:07:59.074Z,1005.71
2018-04-24T06:08:59.052Z,1005.78
2018-04-24T06:09:59.029Z,1005.71
2018-04-24T06:10:59.007Z,1005.76
2018-04-24T06:11:58.988Z,1005.76
2018-04-24T06:12:58.962Z,1005.82
2018-04-24T06:13:58.938Z,1005.85
2018-04-24T06:14:58.995Z,1005.88
2018-04-24T06:15:58.903Z,1005.92
2018-04-24T06:16:58.872Z,1005.84
2018-04-24T06:17:58.851Z,1005.88
2018-04-24T06:18:58.835Z,1005.88
2018-04-24T06:19:58.807Z,1005.87
2018-04-24T06:20:58.835Z,1005.89
2018-04-24T06:21:58.762Z,1005.83
2018-04-24T06:22:58.740Z,1005.84
2018-04-24T06:23:58.718Z,1005.86
2018-04-24T06:24:58.696Z,1005.8
2018-04-24T06:25:58.680Z,1005.72
2018-04-24T06:26:58.653Z,1005.79
2018-04-24T06:27:58.631Z,1005.86
2018-04-24T06:28:58.606Z,1005.73
2018-04-24T06:29:58.584Z,1005.8
2018-04-24T06:30:58.563Z,1005.87
2018-04-24T06:31:58.542Z,1005.81
2018-04-24T06:32:58.519Z,1005.76
2018-04-24T06:33:58.497Z,1005.82
2018-04-24T06:34:58.544Z,1005.76
2018-04-24T06:35:58.634Z,1005.88
2018-04-24T06:36:58.430Z,1005.86
2018-04-24T06:37:58.408Z,1005.78
2018-04-24T06:38:58.668Z,1005.79
2018-04-24T06:39:58.615Z,1005.77
2018-04-24T06:40:58.342Z,1005.78
2018-04-24T06:41:58.319Z,1005.79
2018-04-24T06:42:58.296Z,1005.73
2018-04-24T06:43:58.275Z,1005.78
2018-04-24T06:44:58.515Z,1005.8
2018-04-24T06:45:58.229Z,1005.81
2018-04-24T06:46:58.208Z,1005.8
2018-04-24T06:47:58.187Z,1005.76
2018-04-24T06:48:58.163Z,1005.76
2018-04-24T06:49:58.146Z,1005.79
2018-04-24T06:50:58.120Z,1005.76
2018-04-24T06:51:58.098Z,1005.72
2018-04-24T06:52:58.075Z,1005.8
2018-04-24T06:53:58.053Z,1005.76
2018-04-24T06:54:58.070Z,1005.87
2018-04-24T06:55:58.011Z,1005.77
2018-04-24T06:56:57.989Z,1005.83
2018-04-24T06:57:57.966Z,1005.77
2018-04-24T06:58:57.945Z,1005.73
2018-04-24T06:59:57.922Z,1005.73
2018-04-24T07:00:57.900Z,1005.77
2018-04-24T07:01:57.879Z,1005.81
2018-04-24T07:02:57.857Z,1005.76
2018-04-24T07:03:57.834Z,1005.78
2018-04-24T07:04:57.813Z,1005.71
2018-04-24T07:05:57.791Z,1005.74
2018-04-24T07:06:57.770Z,1005.74
2018-04-24T07:07:57.748Z,1005.68
2018-04-24T07:08:57.727Z,1005.69
2018-04-24T07:09:57.707Z,1005.72
2018-04-24T07:10:57.731Z,1005.74
2018-04-24T07:11:57.663Z,1005.65
2018-04-24T07:12:57.639Z,1005.71
2018-04-24T07:13:57.619Z,1005.73
2018-04-24T07:14:57.600Z,1005.63
2018-04-24T07:15:57.649Z,1005.72
2018-04-24T07:16:57.837Z,1005.69
2018-04-24T07:17:57.683Z,1005.65
2018-04-24T07:18:57.834Z,1005.58
2018-04-24T07:19:57.669Z,1005.67
2018-04-24T07:20:57.472Z,1005.71
2018-04-24T07:21:57.450Z,1005.67
2018-04-24T07:22:57.501Z,1005.47
2018-04-24T07:23:57.411Z,1005.53
2018-04-24T07:24:57.387Z,1005.63
2018-04-24T07:25:57.366Z,1005.63
2018-04-24T07:26:57.343Z,1005.6
2018-04-24T07:27:57.325Z,1005.63
2018-04-24T07:28:57.301Z,1005.65
2018-04-24T07:29:57.281Z,1005.73
2018-04-24T07:30:57.259Z,1005.65
2018-04-24T07:31:57.260Z,1005.7
2018-04-24T07:32:57.446Z,1005.7
2018-04-24T07:33:57.202Z,1005.72
2018-04-24T07:34:57.210Z,1005.73
2018-04-24T07:35:57.274Z,1005.67
2018-04-24T07:36:57.136Z,1005.64
2018-04-24T07:37:57.113Z,1005.65
2018-04-24T07:38:57.091Z,1005.63
2018-04-24T07:39:57.070Z,1005.66
2018-04-24T07:40:57.049Z,1005.78
2018-04-24T07:41:57.029Z,1005.73
2018-04-24T07:42:57.015Z,1005.75
2018-04-24T07:43:56.984Z,1005.72
2018-04-24T07:44:56.962Z,1005.74
2018-04-24T07:45:56.956Z,1005.71
2018-04-24T07:46:56.921Z,1005.73
2018-04-24T07:47:56.955Z,1005.71
2018-04-24T07:48:56.874Z,1005.76
2018-04-24T07:49:56.874Z,1005.79
2018-04-24T07:50:56.832Z,1005.82
2018-04-24T07:51:56.848Z,1005.84
2018-04-24T07:52:56.789Z,1005.78
2018-04-24T07:53:56.768Z,1005.82
2018-04-24T07:54:56.747Z,1005.87
2018-04-24T07:55:56.725Z,1005.75
2018-04-24T07:56:56.704Z,1005.82
2018-04-24T07:57:56.682Z,1005.79
2018-04-24T07:58:56.660Z,1005.74
2018-04-24T07:59:56.638Z,1005.78
2018-04-24T08:00:56.623Z,1005.76
2018-04-24T08:01:56.645Z,1005.82
2018-04-24T08:02:56.575Z,1005.83
2018-04-24T08:03:56.559Z,1005.87
2018-04-24T08:04:56.533Z,1005.84
2018-04-24T08:05:56.512Z,1005.84
2018-04-24T08:06:56.491Z,1005.8
2018-04-24T08:07:56.470Z,1005.82
2018-04-24T08:08:56.449Z,1005.75
2018-04-24T08:09:56.426Z,1005.73
2018-04-24T08:10:56.406Z,1005.77
2018-04-24T08:11:56.491Z,1005.82
2018-04-24T08:12:56.368Z,1005.76
2018-04-24T08:13:56.343Z,1005.79
2018-04-24T08:14:56.324Z,1005.73
2018-04-24T08:15:56.307Z,1005.74
2018-04-24T08:16:56.280Z,1005.76
2018-04-24T08:17:56.259Z,1005.82
2018-04-24T08:18:56.428Z,1005.81
2018-04-24T08:19:56.493Z,1005.77
2018-04-24T08:20:56.448Z,1005.76
2018-04-24T08:21:56.317Z,1005.75
2018-04-24T08:22:56.222Z,1005.75
2018-04-24T08:23:56.136Z,1005.68
2018-04-24T08:24:56.116Z,1005.72
2018-04-24T08:25:56.097Z,1005.7
2018-04-24T08:26:56.077Z,1005.71
2018-04-24T08:27:56.061Z,1005.67
2018-04-24T08:28:56.053Z,1005.73
2018-04-24T08:29:56.142Z,1005.69
2018-04-24T08:30:56.030Z,1005.7
2018-04-24T08:31:56.105Z,1005.73
2018-04-24T08:32:55.964Z,1005.73
2018-04-24T08:33:55.939Z,1005.71
2018-04-24T08:34:56.043Z,1005.69
2018-04-24T08:35:55.916Z,1005.7
2018-04-24T08:36:55.917Z,1005.76
2018-04-24T08:37:55.986Z,1005.77
2018-04-24T08:38:55.975Z,1005.7
2018-04-24T08:39:55.937Z,1005.75
2018-04-24T08:40:55.845Z,1005.74
2018-04-24T08:41:55.847Z,1005.63
2018-04-24T08:42:55.907Z,1005.63
2018-04-24T08:43:55.752Z,1005.7
2018-04-24T08:44:55.835Z,1005.74
2018-04-24T08:45:55.762Z,1005.72
2018-04-24T08:46:55.805Z,1005.77
2018-04-24T08:47:55.813Z,1005.76
2018-04-24T08:48:55.786Z,1005.88
2018-04-24T08:49:55.639Z,1005.89
2018-04-24T08:50:55.622Z,1005.87
2018-04-24T08:51:55.604Z,1005.97
2018-04-24T08:52:55.586Z,1005.97
2018-04-24T08:53:55.569Z,1005.96
2018-04-24T08:54:55.548Z,1005.99
2018-04-24T08:55:55.531Z,1005.84
2018-04-24T08:56:55.516Z,1006.06
2018-04-24T08:57:55.493Z,1005.95
2018-04-24T08:58:55.475Z,1005.93
2018-04-24T08:59:55.455Z,1005.94
2018-04-24T09:00:55.438Z,1005.95
2018-04-24T09:01:55.742Z,1005.99
2018-04-24T09:02:55.435Z,1006
2018-04-24T09:03:55.381Z,1005.95
2018-04-24T09:04:55.364Z,1006.05
2018-04-24T09:05:55.345Z,1006.09
2018-04-24T09:06:55.327Z,1006.07
2018-04-24T09:07:55.310Z,1006.08
2018-04-24T09:08:55.290Z,1006.11
2018-04-24T09:09:55.275Z,1006.16
2018-04-24T09:10:55.258Z,1006.12
2018-04-24T09:11:55.236Z,1006.15
2018-04-24T09:12:55.218Z,1006.24
2018-04-24T09:13:55.199Z,1006.15
2018-04-24T09:14:55.182Z,1006.16
2018-04-24T09:15:55.162Z,1006.27
2018-04-24T09:16:55.143Z,1006.21
2018-04-24T09:17:55.126Z,1006.19
2018-04-24T09:18:55.111Z,1006.23
2018-04-24T09:19:55.090Z,1006.15
2018-04-24T09:20:55.071Z,1006.08
2018-04-24T09:21:55.056Z,1006.17
2018-04-24T09:22:55.035Z,1006.18
2018-04-24T09:23:55.018Z,1006.15
2018-04-24T09:24:54.996Z,1006.16
2018-04-24T09:25:54.976Z,1006.15
2018-04-24T09:26:54.972Z,1006.13
2018-04-24T09:27:54.939Z,1006.21
2018-04-24T09:28:54.919Z,1006.14
2018-04-24T09:29:54.903Z,1006.15
2018-04-24T09:30:54.885Z,1006.08
2018-04-24T09:31:54.864Z,1006.06
2018-04-24T09:32:54.847Z,1006.07
2018-04-24T09:33:54.829Z,1006.17
2018-04-24T09:34:54.810Z,1006.11
2018-04-24T09:35:54.791Z,1006.08
2018-04-24T09:36:54.773Z,1006.07
2018-04-24T09:37:54.756Z,1006.04
2018-04-24T09:38:54.761Z,1006.1
2018-04-24T09:39:54.720Z,1006.11
2018-04-24T09:40:54.703Z,1005.99
2018-04-24T09:41:54.680Z,1006.09
2018-04-24T09:42:54.661Z,1005.97
2018-04-24T09:43:54.709Z,1005.97
2018-04-24T09:44:54.622Z,1005.94
2018-04-24T09:45:54.681Z,1005.95
2018-04-24T09:46:54.586Z,1005.96
2018-04-24T09:47:54.567Z,1006.03
2018-04-24T09:48:54.575Z,1006
2018-04-24T09:49:54.527Z,1006.11
2018-04-24T09:50:54.509Z,1006.16
2018-04-24T09:51:54.491Z,1006.12
2018-04-24T09:52:54.471Z,1006.15
2018-04-24T09:53:54.454Z,1006.14
2018-04-24T09:54:54.435Z,1006.2
2018-04-24T09:55:54.416Z,1006.24
2018-04-24T09:56:54.485Z,1006.34
2018-04-24T09:57:54.380Z,1006.26
2018-04-24T09:58:54.361Z,1006.26
2018-04-24T09:59:54.341Z,1006.32
2018-04-24T10:00:54.324Z,1006.23
2018-04-24T10:01:54.306Z,1006.26
2018-04-24T10:02:54.287Z,1006.3
2018-04-24T10:03:54.267Z,1006.27
2018-04-24T10:04:54.251Z,1006.26
2018-04-24T10:05:54.235Z,1006.25
2018-04-24T10:06:54.211Z,1006.26
2018-04-24T10:07:54.300Z,1006.29
2018-04-24T10:08:54.174Z,1006.19
2018-04-24T10:09:54.157Z,1006.29
2018-04-24T10:10:54.140Z,1006.31
2018-04-24T10:11:54.122Z,1006.24
2018-04-24T10:12:54.099Z,1006.28
2018-04-24T10:13:54.080Z,1006.24
2018-04-24T10:14:54.061Z,1006.22
2018-04-24T10:15:54.043Z,1006.13
2018-04-24T10:16:54.024Z,1006.18
2018-04-24T10:17:54.004Z,1006.2
2018-04-24T10:18:53.985Z,1006.22
2018-04-24T10:19:53.968Z,1006.31
2018-04-24T10:20:53.951Z,1006.24
2018-04-24T10:21:53.929Z,1006.2
2018-04-24T10:22:53.908Z,1006.21
2018-04-24T10:23:53.892Z,1006.18
2018-04-24T10:24:53.869Z,1006.3
2018-04-24T10:25:53.853Z,1006.23
2018-04-24T10:26:53.832Z,1006.23
2018-04-24T10:27:53.816Z,1006.22
2018-04-24T10:28:53.793Z,1006.21
2018-04-24T10:29:53.774Z,1006.21
2018-04-24T10:30:53.754Z,1006.2
2018-04-24T10:31:53.734Z,1006.15
2018-04-24T10:32:53.716Z,1005.94
2018-04-24T10:33:53.695Z,1006.17
2018-04-24T10:34:53.676Z,1006.13
2018-04-24T10:35:53.659Z,1006.15
2018-04-24T10:36:53.639Z,1006.14
2018-04-24T10:37:53.620Z,1006.07
2018-04-24T10:38:53.602Z,1006.09
2018-04-24T10:39:53.581Z,1006.09
2018-04-24T10:40:53.564Z,1006.1
2018-04-24T10:41:53.546Z,1006.11
2018-04-24T10:42:53.529Z,1006.11
2018-04-24T10:43:53.545Z,1006.13
2018-04-24T10:44:53.489Z,1006.01
2018-04-24T10:45:53.481Z,1006.06
2018-04-24T10:46:53.459Z,1006.08
2018-04-24T10:47:53.431Z,1006.07
2018-04-24T10:48:53.414Z,1006.04
2018-04-24T10:49:53.396Z,1006.1
2018-04-24T10:50:53.377Z,1006.09
2018-04-24T10:51:53.444Z,1006.05
2018-04-24T10:52:53.338Z,1006.06
2018-04-24T10:53:53.322Z,1006.14
2018-04-24T10:54:53.302Z,1006.16
2018-04-24T10:55:53.367Z,1006.09
2018-04-24T10:56:53.266Z,1005.96
2018-04-24T10:57:53.251Z,1005.93
2018-04-24T10:58:53.228Z,1005.98
2018-04-24T10:59:53.211Z,1006.02
2018-04-24T11:00:53.192Z,1005.9
2018-04-24T11:01:53.173Z,1005.88
2018-04-24T11:02:53.156Z,1005.86
2018-04-24T11:03:53.136Z,1005.93
2018-04-24T11:04:53.118Z,1005.84
2018-04-24T11:05:53.098Z,1005.83
2018-04-24T11:06:53.081Z,1005.89
2018-04-24T11:07:53.063Z,1005.8
2018-04-24T11:08:53.045Z,1005.77
2018-04-24T11:09:53.028Z,1005.73
2018-04-24T11:10:53.010Z,1005.68
2018-04-24T11:11:53.034Z,1005.73
2018-04-24T11:12:53.217Z,1005.82
2018-04-24T11:13:52.954Z,1005.8
2018-04-24T11:14:52.938Z,1005.82
2018-04-24T11:15:52.932Z,1005.84
2018-04-24T11:16:52.946Z,1005.79
2018-04-24T11:17:52.886Z,1005.97
2018-04-24T11:18:52.869Z,1005.91
2018-04-24T11:19:52.848Z,1005.94
2018-04-24T11:20:52.995Z,1006.05
2018-04-24T11:21:52.812Z,1005.93
2018-04-24T11:22:52.796Z,1005.92
2018-04-24T11:23:52.775Z,1005.92
2018-04-24T11:24:52.758Z,1005.9
2018-04-24T11:25:52.740Z,1005.92
2018-04-24T11:26:52.722Z,1005.99
2018-04-24T11:27:52.789Z,1005.91
2018-04-24T11:28:52.686Z,1005.9
2018-04-24T11:29:52.667Z,1005.91
2018-04-24T11:30:52.646Z,1005.92
2018-04-24T11:31:52.627Z,1005.85
2018-04-24T11:32:52.610Z,1005.87
2018-04-24T11:33:52.591Z,1005.88
2018-04-24T11:34:52.581Z,1005.89
2018-04-24T11:35:52.597Z,1005.91
2018-04-24T11:36:52.566Z,1005.94
2018-04-24T11:37:52.512Z,1005.97
2018-04-24T11:38:52.497Z,1006.02
2018-04-24T11:39:52.473Z,1006.04
2018-04-24T11:40:52.454Z,1006.05
2018-04-24T11:41:52.439Z,1006.08
2018-04-24T11:42:52.415Z,1006.04
2018-04-24T11:43:52.411Z,1006.07
2018-04-24T11:44:52.378Z,1006.12
2018-04-24T11:45:52.358Z,1006.07
2018-04-24T11:46:52.338Z,1006.08
2018-04-24T11:47:52.321Z,1006.06
2018-04-24T11:48:52.301Z,1006.08
2018-04-24T11:49:52.281Z,1006.03
2018-04-24T11:50:52.263Z,1006.08
2018-04-24T11:51:52.242Z,1006.16
2018-04-24T11:52:52.224Z,1006.17
2018-04-24T11:53:52.208Z,1006.24
2018-04-24T11:54:52.189Z,1006.33
2018-04-24T11:55:52.169Z,1006.15
2018-04-24T11:56:52.149Z,1006.12
2018-04-24T11:57:52.130Z,1006.09
2018-04-24T11:58:52.113Z,1006.1
2018-04-24T11:59:52.092Z,1006.18
2018-04-24T12:00:52.073Z,1006.12
2018-04-24T12:01:52.056Z,1006.18
2018-04-24T12:02:52.112Z,1006.06
2018-04-24T12:03:52.022Z,1006.1
2018-04-24T12:04:51.998Z,1006.09
2018-04-24T12:05:51.981Z,1006.13
2018-04-24T12:06:51.960Z,1006.04
2018-04-24T12:07:51.946Z,1006.02